Time;durP1;ratioP1;P1;durP2;ratioP2;P2;SDS_P1;SDS_P2;PMS_P1;PMS_P2;Temp;Humidity;BMP_temperature;BMP_pressure;BME280_temperature;BME280_humidity;BME280_pressure;Samples;Min_cycle;Max_cycle;Signal;HPM_P1;HPM_P2
2022/12/05 00:01:25;;;;;;;278.70;107.15;;;;;;;0.81;100.00;101666.41;5054235;28;20021;-46
2022/12/05 00:03:53;;;;;;;282.67;109.90;;;;;;;0.80;100.00;101669.69;5052770;28;20106;-50
2022/12/05 00:06:19;;;;;;;275.60;108.22;;;;;;;0.82;100.00;101675.81;5053995;28;20464;-48
2022/12/05 00:08:46;;;;;;;272.92;107.85;;;;;;;0.81;100.00;101676.56;5053765;28;20021;-49
2022/12/05 00:11:13;;;;;;;271.20;106.55;;;;;;;0.82;100.00;101675.81;5053303;28;20033;-49
2022/12/05 00:13:39;;;;;;;280.40;111.82;;;;;;;0.83;100.00;101682.66;5053704;28;20020;-49
2022/12/05 00:16:10;;;;;;;272.58;109.93;;;;;;;0.81;100.00;101680.00;5053870;28;20025;-47
2022/12/05 00:18:36;;;;;;;283.48;109.85;;;;;;;0.85;100.00;101673.50;5052206;28;20031;-49
2022/12/05 00:21:01;;;;;;;271.13;106.18;;;;;;;0.86;100.00;101682.03;5053604;28;20021;-49
2022/12/05 00:23:26;;;;;;;273.42;109.03;;;;;;;0.87;100.00;101682.13;5053544;28;20349;-48
2022/12/05 00:25:52;;;;;;;267.75;108.53;;;;;;;0.89;100.00;101677.19;5052681;28;20025;-49
2022/12/05 00:28:17;;;;;;;273.90;109.28;;;;;;;0.88;100.00;101667.78;5053461;28;20021;-48
2022/12/05 00:30:42;;;;;;;279.55;109.47;;;;;;;0.90;100.00;101673.91;5053223;28;20039;-49
2022/12/05 00:33:07;;;;;;;271.42;108.47;;;;;;;0.90;100.00;101666.28;5052712;28;20021;-49
2022/12/05 00:35:33;;;;;;;268.23;107.13;;;;;;;0.91;100.00;101661.31;5053149;28;20029;-47
2022/12/05 00:37:58;;;;;;;271.95;105.85;;;;;;;0.93;100.00;101658.91;5052955;28;20071;-48
2022/12/05 00:40:24;;;;;;;263.60;103.85;;;;;;;0.92;100.00;101655.50;5053110;28;20354;-47
2022/12/05 00:42:49;;;;;;;273.77;110.10;;;;;;;0.92;100.00;101658.03;5053169;28;20029;-49
2022/12/05 00:45:14;;;;;;;267.98;106.22;;;;;;;0.93;100.00;101656.38;5052446;28;20028;-48
2022/12/05 00:47:39;;;;;;;263.05;106.90;;;;;;;0.94;100.00;101650.53;5052972;28;20029;-48
2022/12/05 00:50:05;;;;;;;270.85;107.10;;;;;;;0.95;100.00;101653.19;5053117;28;20013;-48
2022/12/05 00:52:31;;;;;;;264.70;105.85;;;;;;;0.95;100.00;101658.25;5051987;28;20380;-49
2022/12/05 00:54:56;;;;;;;265.42;106.63;;;;;;;0.96;100.00;101657.50;5053278;28;20059;-47
2022/12/05 00:57:21;;;;;;;260.50;107.65;;;;;;;0.97;100.00;101650.81;5053502;28;20029;-49
2022/12/05 00:59:47;;;;;;;258.52;108.47;;;;;;;0.97;100.00;101651.69;5052105;28;20032;-48
2022/12/05 01:02:12;;;;;;;246.77;101.95;;;;;;;0.98;100.00;101653.47;5052916;28;20037;-45
2022/12/05 01:04:37;;;;;;;264.88;105.90;;;;;;;1.00;100.00;101652.69;5052594;28;20471;-48
2022/12/05 01:07:03;;;;;;;263.15;106.80;;;;;;;1.01;100.00;101657.00;5052046;28;20116;-46
2022/12/05 01:09:28;;;;;;;246.63;103.93;;;;;;;1.01;100.00;101652.81;5053040;28;20056;-47
2022/12/05 01:11:54;;;;;;;247.73;104.28;;;;;;;1.02;100.00;101658.78;5052725;28;20061;-48
2022/12/05 01:14:23;;;;;;;246.30;101.80;;;;;;;1.03;100.00;101668.16;5052195;28;20107;-48
2022/12/05 01:16:49;;;;;;;249.32;105.22;;;;;;;1.04;100.00;101664.88;5052395;28;20025;-48
2022/12/05 01:19:27;;;;;;;243.63;101.82;;;;;;;1.09;100.00;101671.22;5052803;28;20432;-48
2022/12/05 01:21:53;;;;;;;244.27;101.35;;;;;;;1.08;100.00;101670.31;5051525;28;20381;-48
2022/12/05 01:24:20;;;;;;;252.85;102.22;;;;;;;1.08;100.00;101669.44;5052794;28;20099;-48
2022/12/05 01:26:46;;;;;;;245.02;101.60;;;;;;;1.12;100.00;101673.97;5052411;28;20084;-49
2022/12/05 01:29:13;;;;;;;248.65;103.18;;;;;;;1.11;100.00;101669.66;5051775;28;20041;-49
2022/12/05 01:31:39;;;;;;;246.95;105.68;;;;;;;1.12;100.00;101671.44;5051479;28;20384;-48
2022/12/05 01:34:08;;;;;;;246.57;101.80;;;;;;;1.13;100.00;101675.75;5052560;28;20071;-48
2022/12/05 01:36:33;;;;;;;251.98;104.68;;;;;;;1.14;100.00;101680.09;5051574;28;20071;-47
2022/12/05 01:38:59;;;;;;;235.70;100.22;;;;;;;1.15;100.00;101674.25;5052525;28;20060;-49
2022/12/05 01:41:28;;;;;;;235.43;99.80;;;;;;;1.15;100.00;101686.94;5051782;28;20028;-48
2022/12/05 01:44:20;;;;;;;233.50;100.85;;;;;;;1.20;100.00;101680.59;5052021;28;20426;-48
2022/12/05 01:46:48;;;;;;;238.25;100.78;;;;;;;1.20;100.00;101684.75;5043611;28;20037;-49
2022/12/05 01:49:20;;;;;;;233.98;101.85;;;;;;;1.19;100.00;101682.97;5051876;28;20021;-49
2022/12/05 01:51:48;;;;;;;237.27;99.95;;;;;;;1.20;100.00;101687.28;5052106;28;20464;-46
2022/12/05 01:54:16;;;;;;;236.68;99.90;;;;;;;1.22;100.00;101698.47;5052303;28;20549;-49
2022/12/05 01:56:45;;;;;;;236.23;102.55;;;;;;;1.20;100.00;101700.00;5051281;28;20376;-49
2022/12/05 01:59:12;;;;;;;237.38;98.10;;;;;;;1.21;100.00;101697.56;5052197;28;20100;-49
2022/12/05 02:01:38;;;;;;;230.63;101.07;;;;;;;1.21;100.00;101692.50;5052053;28;20036;-48
2022/12/05 02:04:04;;;;;;;237.23;102.47;;;;;;;1.22;100.00;101693.41;5051665;28;20111;-48
2022/12/05 02:06:30;;;;;;;237.10;102.25;;;;;;;1.23;100.00;101696.06;5052325;28;20040;-48
2022/12/05 02:08:56;;;;;;;242.15;100.15;;;;;;;1.23;100.00;101693.53;5052042;28;20052;-46
2022/12/05 02:11:23;;;;;;;252.88;102.65;;;;;;;1.23;100.00;101695.19;5051507;28;20120;-48
2022/12/05 02:13:54;;;;;;;237.30;97.88;;;;;;;1.22;100.00;101695.94;5051879;28;20024;-48
2022/12/05 02:16:48;;;;;;;239.30;102.15;;;;;;;1.26;100.00;101700.50;5052248;28;20110;-47
2022/12/05 02:19:44;;;;;;;240.27;98.75;;;;;;;1.24;100.00;101696.94;5052191;28;20124;-49
2022/12/05 02:22:46;;;;;;;238.38;99.60;;;;;;;1.26;100.00;101693.75;5052029;28;20041;-48
2022/12/05 02:25:49;;;;;;;241.90;101.47;;;;;;;1.27;100.00;101697.19;5051212;28;20487;-48
2022/12/05 02:28:27;;;;;;;238.15;100.15;;;;;;;1.25;100.00;101694.53;5051921;28;20040;-48
2022/12/05 02:31:03;;;;;;;238.80;101.95;;;;;;;1.24;100.00;101697.84;5051119;28;20098;-49
2022/12/05 02:33:45;;;;;;;238.13;100.78;;;;;;;1.25;100.00;101686.03;5052154;28;20021;-49
2022/12/05 02:36:36;;;;;;;234.85;97.22;;;;;;;1.25;100.00;101693.63;5052057;28;20369;-48
2022/12/05 02:39:11;;;;;;;259.08;101.30;;;;;;;1.25;100.00;101683.47;5050997;28;20473;-48
2022/12/05 02:41:46;;;;;;;256.08;101.57;;;;;;;1.25;100.00;101689.47;5052962;28;20029;-49
2022/12/05 02:44:20;;;;;;;242.63;100.72;;;;;;;1.27;100.00;101692.13;5055593;28;20133;-44
2022/12/05 02:46:48;;;;;;;250.13;104.28;;;;;;;1.25;100.00;101686.94;5054441;28;20029;-48
2022/12/05 02:49:20;;;;;;;242.75;102.80;;;;;;;1.25;100.00;101702.16;5055346;28;20032;-45
2022/12/05 02:51:50;;;;;;;252.02;104.00;;;;;;;1.25;100.00;101689.47;5054480;28;20060;-45
2022/12/05 02:54:20;;;;;;;255.13;102.70;;;;;;;1.26;100.00;101700.50;5055478;28;20231;-45
2022/12/05 02:56:47;;;;;;;251.23;99.97;;;;;;;1.26;100.00;101693.75;5055117;28;20178;-47
2022/12/05 02:59:12;;;;;;;258.38;103.88;;;;;;;1.27;100.00;101694.66;5054614;28;20083;-49
2022/12/05 03:01:38;;;;;;;250.10;102.60;;;;;;;1.26;100.00;101696.28;5054615;28;20028;-49
2022/12/05 03:04:06;;;;;;;251.38;101.68;;;;;;;1.25;100.00;101703.78;5055328;28;20102;-50
2022/12/05 03:06:47;;;;;;;254.55;103.55;;;;;;;1.26;100.00;101703.03;5054271;28;20115;-47
2022/12/05 03:09:20;;;;;;;252.90;104.10;;;;;;;1.23;100.00;101703.69;5055167;28;20112;-49
2022/12/05 03:12:08;;;;;;;258.73;100.30;;;;;;;1.23;100.00;101701.13;5054785;28;20033;-49
2022/12/05 03:14:40;;;;;;;259.67;102.95;;;;;;;1.22;100.00;101706.97;5053856;28;20358;-49
2022/12/05 03:17:15;;;;;;;266.95;104.95;;;;;;;1.22;100.00;101703.56;5055009;28;20025;-48
2022/12/05 03:20:01;;;;;;;262.98;105.60;;;;;;;1.22;100.00;101699.34;5054442;28;20376;-47
2022/12/05 03:22:34;;;;;;;254.77;103.63;;;;;;;1.23;100.00;101695.19;5054770;28;20028;-49
2022/12/05 03:25:01;;;;;;;271.45;106.00;;;;;;;1.21;100.00;101689.94;5055156;28;20029;-47
2022/12/05 03:27:39;;;;;;;263.40;105.97;;;;;;;1.22;100.00;101688.31;5054135;28;20079;-48
2022/12/05 03:30:11;;;;;;;244.77;100.63;;;;;;;1.22;100.00;101688.31;5054816;28;20025;-47
2022/12/05 03:32:58;;;;;;;259.77;102.82;;;;;;;1.22;100.00;101694.28;5054414;28;20086;-48
2022/12/05 03:35:42;;;;;;;256.33;104.57;;;;;;;1.25;100.00;101694.53;5054082;28;20043;-48
2022/12/05 03:38:14;;;;;;;259.38;102.97;;;;;;;1.23;100.00;101690.09;5054618;28;20033;-49
2022/12/05 03:40:46;;;;;;;265.30;105.72;;;;;;;1.22;100.00;101688.31;5054250;28;20028;-48
2022/12/05 03:43:28;;;;;;;281.20;106.35;;;;;;;1.24;100.00;101684.25;5053616;28;20032;-49
2022/12/05 03:45:59;;;;;;;273.15;107.25;;;;;;;1.23;100.00;101690.09;5054308;28;20036;-48
2022/12/05 03:48:56;;;;;;;274.58;105.78;;;;;;;1.25;100.00;101686.94;5053822;28;20029;-46
2022/12/05 03:51:27;;;;;;;270.80;105.80;;;;;;;1.23;100.00;101690.97;5054320;28;20059;-48
2022/12/05 03:54:02;;;;;;;269.88;103.85;;;;;;;1.23;100.00;101690.97;5053014;28;20033;-48
2022/12/05 03:56:40;;;;;;;266.50;106.25;;;;;;;1.24;100.00;101691.84;5053702;28;20029;-48
2022/12/05 03:59:19;;;;;;;261.13;104.65;;;;;;;1.24;100.00;101695.31;5054300;28;20036;-49
2022/12/05 04:01:47;;;;;;;268.70;104.40;;;;;;;1.28;100.00;101696.44;5053675;28;20013;-47
2022/12/05 04:04:17;;;;;;;285.02;109.28;;;;;;;1.24;100.00;101694.41;5053157;28;20025;-48
2022/12/05 04:06:46;;;;;;;266.33;105.03;;;;;;;1.23;100.00;101700.25;5053834;28;20032;-49
2022/12/05 04:09:16;;;;;;;276.13;107.68;;;;;;;1.23;100.00;101696.06;5053281;28;20036;-49
2022/12/05 04:11:47;;;;;;;272.45;106.13;;;;;;;1.24;100.00;101702.91;5053655;28;20025;-48
2022/12/05 04:14:27;;;;;;;259.05;101.85;;;;;;;1.25;100.00;101703.78;5053960;28;20108;-48
2022/12/05 04:17:04;;;;;;;267.95;105.22;;;;;;;1.24;100.00;101691.84;5052851;28;20033;-50
2022/12/05 04:22:23;;;;;;;268.23;103.65;;;;;;;1.25;100.00;101702.16;5053656;28;20040;-48
2022/12/05 04:28:16;;;;;;;261.17;103.40;;;;;;;1.30;100.00;101711.03;5053604;28;20048;-46
2022/12/05 04:30:47;;;;;;;271.55;104.72;;;;;;;1.28;100.00;101706.59;5052664;28;20029;-47
2022/12/05 04:33:26;;;;;;;260.10;104.45;;;;;;;1.29;100.00;101711.81;5053476;28;20025;-48
2022/12/05 04:36:06;;;;;;;265.30;103.75;;;;;;;1.29;100.00;101706.72;5053334;28;20032;-46
2022/12/05 04:38:41;;;;;;;269.02;102.65;;;;;;;1.30;100.00;101710.13;5052445;28;20039;-45
2022/12/05 04:41:15;;;;;;;280.63;105.00;;;;;;;1.29;100.00;101709.25;5053396;28;20167;-46
2022/12/05 04:43:43;;;;;;;271.70;108.18;;;;;;;1.29;100.00;101714.34;5053055;28;20032;-49
2022/12/05 04:46:11;;;;;;;296.52;110.53;;;;;;;1.29;100.00;101710.88;5052649;28;20029;-49
2022/12/05 04:48:37;;;;;;;;;;;;;;;1.40;100.00;101719.41;5053548;28;20033;-47
2022/12/05 04:51:06;;;;;;;277.50;106.05;;;;;;;1.33;100.00;101719.66;5053309;28;19913;-49
2022/12/05 04:53:32;;;;;;;287.90;106.50;;;;;;;1.32;100.00;101711.16;5052067;28;20017;-48
2022/12/05 04:56:00;;;;;;;295.48;112.32;;;;;;;1.30;100.00;101708.50;5053087;28;20021;-48
2022/12/05 04:58:29;;;;;;;297.17;110.15;;;;;;;1.31;100.00;101711.91;5052067;28;20025;-48
2022/12/05 05:01:09;;;;;;;280.90;107.80;;;;;;;1.30;100.00;101708.50;5052833;28;20183;-47
2022/12/05 05:03:42;;;;;;;300.48;111.60;;;;;;;1.31;100.00;101702.63;5052518;28;20053;-48
2022/12/05 05:06:11;;;;;;;298.70;110.03;;;;;;;1.32;100.00;101706.09;5052116;28;20021;-46
2022/12/05 05:08:44;;;;;;;294.88;109.53;;;;;;;1.33;100.00;101706.97;5052704;28;20032;-47
2022/12/05 05:11:22;;;;;;;305.38;112.00;;;;;;;1.35;100.00;101713.06;5052961;28;20056;-48
2022/12/05 05:13:48;;;;;;;300.08;111.13;;;;;;;1.34;100.00;101709.63;5051797;28;20021;-49
2022/12/05 05:16:19;;;;;;;312.17;110.65;;;;;;;1.35;100.00;101713.94;5052881;28;20431;-50
2022/12/05 05:18:45;;;;;;;304.95;108.82;;;;;;;1.36;100.00;101712.31;5052286;28;20025;-49
2022/12/05 05:21:18;;;;;;;303.38;109.70;;;;;;;1.36;100.00;101718.25;5051890;28;20017;-49
2022/12/05 05:23:44;;;;;;;293.58;109.78;;;;;;;1.36;100.00;101720.78;5052542;28;20167;-49
2022/12/05 05:26:09;;;;;;;301.75;111.88;;;;;;;1.39;100.00;101722.69;5052746;28;20100;-49
2022/12/05 05:28:35;;;;;;;291.08;107.32;;;;;;;1.41;100.00;101726.25;5051615;28;20029;-49
2022/12/05 05:31:04;;;;;;;292.35;106.88;;;;;;;1.40;100.00;101729.56;5052551;28;20029;-49
2022/12/05 05:33:30;;;;;;;287.45;106.85;;;;;;;1.40;100.00;101729.56;5051706;28;20499;-47
2022/12/05 05:35:55;;;;;;;284.33;106.05;;;;;;;1.40;100.00;101720.28;5052280;28;20029;-49
2022/12/05 05:38:20;;;;;;;284.25;105.50;;;;;;;1.43;100.00;101724.72;5052637;28;20036;-48
2022/12/05 05:40:46;;;;;;;286.98;105.05;;;;;;;1.43;100.00;101720.53;5051525;28;20431;-48
2022/12/05 05:43:11;;;;;;;281.35;104.55;;;;;;;1.43;100.00;101719.63;5052631;28;20490;-48
2022/12/05 05:45:36;;;;;;;290.15;103.85;;;;;;;1.45;100.00;101723.19;5052137;28;20472;-49
2022/12/05 05:48:02;;;;;;;267.73;103.35;;;;;;;1.44;100.00;101713.78;5051588;28;20079;-47
2022/12/05 05:50:27;;;;;;;269.23;102.38;;;;;;;1.45;100.00;101728.28;5052334;28;20384;-49
2022/12/05 05:52:53;;;;;;;271.38;102.38;;;;;;;1.44;100.00;101729.03;5052211;28;20029;-49
2022/12/05 05:55:19;;;;;;;266.77;101.28;;;;;;;1.44;100.00;101721.41;5051742;28;20079;-50
2022/12/05 05:57:44;;;;;;;276.15;102.65;;;;;;;1.47;100.00;101726.72;5052109;28;20090;-46
2022/12/05 06:00:10;;;;;;;262.52;100.32;;;;;;;1.47;100.00;101721.66;5052424;28;20435;-46
2022/12/05 06:02:36;;;;;;;255.00;98.75;;;;;;;1.48;100.00;101729.41;5051321;28;20045;-44
2022/12/05 06:05:01;;;;;;;267.00;99.20;;;;;;;1.51;100.00;101728.78;5052191;28;20017;-46
2022/12/05 06:07:27;;;;;;;258.05;99.82;;;;;;;1.52;100.00;101727.13;5052474;28;20025;-48
2022/12/05 06:09:52;;;;;;;251.10;97.70;;;;;;;1.53;100.00;101723.81;5051109;28;20052;-49
2022/12/05 06:12:17;;;;;;;242.48;94.97;;;;;;;1.54;100.00;101734.09;5052095;28;20025;-48
2022/12/05 06:14:45;;;;;;;239.82;93.93;;;;;;;1.56;100.00;101732.56;5051841;28;20047;-49
2022/12/05 06:17:11;;;;;;;227.60;91.80;;;;;;;1.57;100.00;101738.53;5053294;28;20029;-49
2022/12/05 06:19:36;;;;;;;231.30;90.68;;;;;;;1.58;100.00;101737.78;5055574;28;20051;-48
2022/12/05 06:22:01;;;;;;;224.98;90.20;;;;;;;1.59;100.00;101744.63;5055876;28;20384;-48
2022/12/05 06:24:26;;;;;;;227.60;90.60;;;;;;;1.63;100.00;101742.44;5055322;28;20025;-46
2022/12/05 06:26:52;;;;;;;223.52;91.10;;;;;;;1.60;100.00;101738.75;5055593;28;20025;-48
2022/12/05 06:29:17;;;;;;;221.63;91.30;;;;;;;1.61;100.00;101741.47;5055980;28;20036;-48
2022/12/05 06:31:42;;;;;;;223.90;87.40;;;;;;;1.62;100.00;101740.66;5054774;28;20017;-49
2022/12/05 06:34:08;;;;;;;210.85;85.47;;;;;;;1.62;100.00;101747.41;5055669;28;20024;-49
2022/12/05 06:36:33;;;;;;;216.75;87.07;;;;;;;1.61;100.00;101746.53;5055480;28;20419;-49
2022/12/05 06:38:59;;;;;;;203.50;83.53;;;;;;;1.61;100.00;101746.53;5054896;28;20070;-46
2022/12/05 06:41:25;;;;;;;223.75;86.63;;;;;;;1.60;100.00;101746.38;5055701;28;20024;-48
2022/12/05 06:43:54;;;;;;;208.13;85.28;;;;;;;1.61;100.00;101753.25;5054365;28;20099;-46
2022/12/05 06:46:21;;;;;;;203.93;84.00;;;;;;;1.61;100.00;101746.53;5055686;28;20041;-48
2022/12/05 06:48:46;;;;;;;195.20;81.57;;;;;;;1.61;100.00;101746.53;5055065;28;20457;-48
2022/12/05 06:51:13;;;;;;;195.50;80.65;;;;;;;1.63;100.00;101749.19;5054926;28;20071;-49
2022/12/05 06:53:39;;;;;;;187.05;76.65;;;;;;;1.61;100.00;101740.53;5055280;28;20051;-47
2022/12/05 06:56:10;;;;;;;178.93;77.55;;;;;;;1.60;100.00;101739.66;5055863;28;20033;-48
2022/12/05 06:58:35;;;;;;;186.93;77.03;;;;;;;1.60;100.00;101747.28;5054336;28;20036;-49
2022/12/05 07:03:46;;;;;;;195.05;79.90;;;;;;;1.62;100.00;101753.38;5054999;28;20103;-47
2022/12/05 07:06:11;;;;;;;186.18;77.65;;;;;;;1.63;100.00;101752.59;5054422;28;20040;-48
2022/12/05 07:08:37;;;;;;;178.27;75.13;;;;;;;1.63;100.00;101757.69;5054973;28;20104;-49
2022/12/05 07:11:02;;;;;;;190.13;78.43;;;;;;;1.66;100.00;101756.19;5055287;28;20021;-47
2022/12/05 07:13:28;;;;;;;184.82;77.60;;;;;;;1.65;100.00;101762.88;5054347;28;20385;-48
2022/12/05 07:15:53;;;;;;;189.60;77.13;;;;;;;1.67;100.00;101760.50;5054962;28;20021;-49
2022/12/05 07:18:18;;;;;;;195.73;77.28;;;;;;;1.68;100.00;101768.25;5055267;28;20025;-48
2022/12/05 07:20:44;;;;;;;197.10;79.68;;;;;;;1.67;100.00;101771.53;5054107;28;20479;-48
2022/12/05 07:23:10;;;;;;;193.00;77.93;;;;;;;1.68;100.00;101778.41;5055366;28;20032;-49
2022/12/05 07:25:39;;;;;;;185.07;75.28;;;;;;;1.71;100.00;101782.84;5054656;28;20068;-50
2022/12/05 07:28:05;;;;;;;185.48;74.00;;;;;;;1.72;100.00;101784.63;5052839;28;20583;-49
2022/12/05 07:30:30;;;;;;;187.45;76.35;;;;;;;1.73;100.00;101782.19;5054730;28;20018;-45
2022/12/05 07:32:55;;;;;;;197.23;77.30;;;;;;;1.76;100.00;101782.44;5054646;28;20045;-46
2022/12/05 07:35:21;;;;;;;198.00;75.25;;;;;;;1.75;100.00;101782.31;5054472;28;20025;-48
2022/12/05 07:37:46;;;;;;;187.27;77.28;;;;;;;1.76;100.00;101782.44;5054200;28;20033;-46
2022/12/05 07:40:12;;;;;;;193.25;76.70;;;;;;;1.77;100.00;101783.31;5053957;28;20467;-46
2022/12/05 07:42:37;;;;;;;190.00;74.95;;;;;;;1.77;100.00;101784.22;5054174;28;20032;-45
2022/12/05 07:45:03;;;;;;;199.63;77.60;;;;;;;1.78;100.00;101782.56;5054491;28;20025;-49
2022/12/05 07:47:29;;;;;;;198.15;78.57;;;;;;;1.80;100.00;101788.66;5053984;28;20025;-48
2022/12/05 07:49:54;;;;;;;198.10;76.68;;;;;;;1.79;100.00;101786.88;5054198;28;20028;-48
2022/12/05 07:52:20;;;;;;;191.55;77.38;;;;;;;1.80;100.00;101786.13;5054468;28;20025;-48
2022/12/05 07:54:45;;;;;;;202.02;78.65;;;;;;;1.80;100.00;101789.53;5053344;28;20047;-49
2022/12/05 07:57:10;;;;;;;193.23;78.22;;;;;;;1.81;100.00;101793.00;5054237;28;20376;-47
2022/12/05 07:59:36;;;;;;;199.85;79.60;;;;;;;1.83;100.00;101799.06;5053829;28;20021;-48
2022/12/05 08:02:01;;;;;;;204.60;78.65;;;;;;;1.84;100.00;101799.97;5053163;28;20124;-48
2022/12/05 08:04:27;;;;;;;203.80;80.25;;;;;;;1.85;100.00;101796.63;5054318;28;20052;-46
2022/12/05 08:06:52;;;;;;;187.45;76.55;;;;;;;1.86;100.00;101799.31;5053966;28;20075;-50
2022/12/05 08:09:18;;;;;;;196.18;78.18;;;;;;;1.87;100.00;101800.19;5053290;28;20067;-49
2022/12/05 08:11:43;;;;;;;210.93;81.38;;;;;;;1.88;100.00;101804.53;5053719;28;20025;-48
2022/12/05 08:14:09;;;;;;;205.13;80.50;;;;;;;1.88;100.00;101815.56;5053857;28;20029;-49
2022/12/05 08:16:34;;;;;;;210.35;79.53;;;;;;;1.88;100.00;101818.13;5052774;28;20117;-49
2022/12/05 08:19:05;;;;;;;202.40;77.38;;;;;;;1.89;100.00;101814.81;5054044;28;20064;-46
2022/12/05 08:21:31;;;;;;;212.63;80.13;;;;;;;1.89;100.00;101813.94;5053952;28;20112;-45
2022/12/05 08:23:57;;;;;;;197.93;79.18;;;;;;;1.89;100.00;101814.81;5053049;28;20112;-47
2022/12/05 08:26:28;;;;;;;211.43;79.75;;;;;;;1.91;100.00;101823.47;5053831;28;20049;-48
2022/12/05 08:28:56;;;;;;;189.48;76.55;;;;;;;1.93;100.00;101827.00;5053450;28;20055;-47
2022/12/05 08:31:23;;;;;;;202.07;80.70;;;;;;;1.96;100.00;101826.34;5052751;28;20029;-50
2022/12/05 08:33:49;;;;;;;199.95;77.28;;;;;;;1.96;100.00;101824.72;5053449;28;20029;-49
2022/12/05 08:36:15;;;;;;;200.75;77.80;;;;;;;1.98;100.00;101830.78;5053337;28;20468;-49
2022/12/05 08:38:41;;;;;;;205.35;78.15;;;;;;;1.98;100.00;101828.25;5053092;28;20025;-47
2022/12/05 08:41:09;;;;;;;194.15;76.57;;;;;;;2.02;100.00;101836.16;5053244;28;20025;-48
2022/12/05 08:43:35;;;;;;;;;;;;;;;2.14;100.00;101832.03;5052651;28;20025;-49
2022/12/05 08:46:01;;;;;;;191.95;77.72;;;;;;;2.09;100.00;101833.31;5053292;28;20325;-49
2022/12/05 08:48:28;;;;;;;188.50;75.57;;;;;;;2.06;100.00;101835.63;5053396;28;20053;-46
2022/12/05 08:50:53;;;;;;;192.05;76.55;;;;;;;2.07;100.00;101830.66;5052361;28;20029;-48
2022/12/05 08:53:19;;;;;;;193.20;72.70;;;;;;;2.08;100.00;101836.63;5053255;28;20143;-48
2022/12/05 08:55:44;;;;;;;193.25;75.13;;;;;;;2.07;100.00;101842.50;5052831;28;20135;-49
2022/12/05 08:58:10;;;;;;;200.77;77.40;;;;;;;2.08;100.00;101840.06;5052249;28;20025;-49
2022/12/05 09:00:35;;;;;;;190.70;76.72;;;;;;;2.12;100.00;101838.66;5052952;28;20114;-48
2022/12/05 09:03:01;;;;;;;194.68;78.38;;;;;;;2.18;100.00;101843.34;5052771;28;20091;-48
2022/12/05 09:05:26;;;;;;;182.55;75.10;;;;;;;2.16;100.00;101835.59;5052249;28;20029;-47
2022/12/05 09:07:51;;;;;;;187.73;76.20;;;;;;;2.21;100.00;101843.56;5052706;28;20361;-49
2022/12/05 09:10:17;;;;;;;188.05;75.60;;;;;;;2.18;100.00;101850.97;5053014;28;20036;-48
2022/12/05 09:12:43;;;;;;;184.02;73.85;;;;;;;2.19;100.00;101843.44;5051844;28;20028;-48
2022/12/05 09:15:09;;;;;;;186.70;75.10;;;;;;;2.22;100.00;101843.72;5053181;28;20025;-48
2022/12/05 09:17:36;;;;;;;176.95;73.07;;;;;;;2.18;100.00;101849.28;5052371;28;20056;-47
2022/12/05 09:20:01;;;;;;;178.27;75.47;;;;;;;2.20;100.00;101850.31;5052055;28;20465;-48
2022/12/05 09:22:27;;;;;;;179.65;72.38;;;;;;;2.22;100.00;101851.34;5052853;28;20039;-46
2022/12/05 09:24:52;;;;;;;173.38;72.30;;;;;;;2.24;100.00;101857.41;5052466;28;20025;-48
2022/12/05 09:27:17;;;;;;;184.82;75.30;;;;;;;2.23;100.00;101860.72;5052295;28;20056;-48
2022/12/05 09:29:43;;;;;;;177.18;73.93;;;;;;;2.24;100.00;101859.97;5052628;28;20053;-49
2022/12/05 09:32:09;;;;;;;168.98;71.28;;;;;;;2.24;100.00;101867.59;5052832;28;20462;-49
2022/12/05 09:34:36;;;;;;;174.07;69.72;;;;;;;2.24;100.00;101867.59;5051634;28;20120;-49
2022/12/05 09:37:03;;;;;;;174.65;73.30;;;;;;;2.24;100.00;101865.06;5052501;28;20427;-48
2022/12/05 09:39:28;;;;;;;169.63;70.20;;;;;;;2.26;100.00;101868.63;5052576;28;20025;-48
2022/12/05 09:42:09;;;;;;;174.88;71.85;;;;;;;2.26;100.00;101872.78;5051456;28;20025;-48
2022/12/05 09:44:43;;;;;;;171.02;72.18;;;;;;;2.29;100.00;101878.16;5053026;28;20021;-49
2022/12/05 09:47:33;;;;;;;171.82;70.60;;;;;;;2.32;100.00;101877.50;5051942;28;20071;-48
2022/12/05 09:50:12;;;;;;;159.25;68.95;;;;;;;2.27;100.00;101879.66;5049102;28;20523;-49
2022/12/05 09:52:42;;;;;;;162.38;70.70;;;;;;;2.25;100.00;101881.22;5055067;28;20469;-49
2022/12/05 09:55:14;;;;;;;145.43;63.80;;;;;;;2.20;100.00;101883.38;5055919;28;20117;-49
2022/12/05 09:57:46;;;;;;;149.00;64.05;;;;;;;2.22;100.00;101876.78;5056257;28;20029;-50
2022/12/05 10:00:12;;;;;;;143.13;62.80;;;;;;;2.21;100.00;101881.72;5056556;28;20488;-47
2022/12/05 10:02:49;;;;;;;140.30;64.32;;;;;;;2.21;100.00;101884.25;5055052;28;20045;-49
2022/12/05 10:05:28;;;;;;;113.55;53.28;;;;;;;2.22;100.00;101897.13;5056706;28;20033;-48
2022/12/05 10:08:05;;;;;;;96.10;48.10;;;;;;;2.14;100.00;101885.44;5055208;28;20029;-47
2022/12/05 10:11:02;;;;;;;102.85;49.17;;;;;;;2.17;100.00;101888.22;5056357;28;20040;-49
2022/12/05 10:13:52;;;;;;;106.93;52.55;;;;;;;2.14;100.00;101888.88;5054425;28;20119;-49
2022/12/05 10:16:31;;;;;;;102.18;49.75;;;;;;;2.14;100.00;101882.88;5055632;28;20032;-48
2022/12/05 10:19:12;;;;;;;100.93;49.30;;;;;;;2.23;100.00;101880.19;5056178;28;20029;-47
2022/12/05 10:21:40;;;;;;;87.75;45.15;;;;;;;2.23;100.00;101880.19;5056051;28;20017;-48
2022/12/05 10:24:15;;;;;;;78.90;41.17;;;;;;;2.25;100.00;101886.31;5055227;28;20457;-48
2022/12/05 10:26:47;;;;;;;76.20;41.00;;;;;;;2.28;100.00;101882.31;5055856;28;20029;-48
2022/12/05 10:29:27;;;;;;;77.38;40.05;;;;;;;2.29;100.00;101886.66;5055272;28;20044;-50
2022/12/05 10:32:01;;;;;;;69.97;38.63;;;;;;;2.22;100.00;101884.41;5055620;28;20037;-49
2022/12/05 10:34:36;;;;;;;74.95;39.03;;;;;;;2.24;100.00;101882.84;5055940;28;20530;-49
2022/12/05 10:37:16;;;;;;;78.05;40.53;;;;;;;2.28;100.00;101881.44;5055147;28;20124;-48
2022/12/05 10:39:42;;;;;;;76.50;40.58;;;;;;;2.37;100.00;101879.63;5055486;28;20025;-49
2022/12/05 10:42:18;;;;;;;77.05;39.83;;;;;;;2.39;100.00;101879.75;5055709;28;20028;-49
2022/12/05 10:44:44;;;;;;;73.78;39.95;;;;;;;2.42;100.00;101880.88;5054922;28;20025;-49
2022/12/05 10:47:10;;;;;;;68.95;38.58;;;;;;;2.49;100.00;101881.38;5055894;28;20354;-47
2022/12/05 10:49:37;;;;;;;67.00;37.38;;;;;;;2.51;100.00;101890.03;5055433;28;20108;-49
2022/12/05 10:52:03;;;;;;;62.45;35.17;;;;;;;2.44;100.00;101881.00;5054822;28;20064;-49
2022/12/05 10:54:35;;;;;;;61.65;35.45;;;;;;;2.49;100.00;101882.25;5055430;28;20033;-48
2022/12/05 10:57:00;;;;;;;64.40;36.00;;;;;;;2.50;100.00;101889.13;5054838;28;20053;-47
2022/12/05 10:59:44;;;;;;;59.45;34.28;;;;;;;2.56;100.00;101887.06;5055562;28;20049;-48
2022/12/05 11:02:21;;;;;;;61.67;34.97;;;;;;;2.47;100.00;101883.81;5055241;28;20052;-48
2022/12/05 11:04:46;;;;;;;63.03;34.58;;;;;;;2.43;100.00;101882.66;5054340;28;20021;-48
2022/12/05 11:07:31;;;;;;;59.92;34.88;;;;;;;2.46;100.00;101882.03;5055477;28;20526;-48
2022/12/05 11:09:59;;;;;;;64.13;34.90;;;;;;;2.38;100.00;101875.44;5055438;28;20068;-49
2022/12/05 11:12:38;;;;;;;57.42;33.03;;;;;;;2.46;100.00;101872.72;5054455;28;20103;-48
2022/12/05 11:15:24;;;;;;;66.35;34.63;;;;;;;2.44;100.00;101868.28;5055121;28;20350;-48
2022/12/05 11:17:52;;;;;;;60.45;33.58;;;;;;;2.47;100.00;101864.31;5054514;28;20067;-47
2022/12/05 11:20:18;;;;;;;59.15;32.95;;;;;;;2.52;100.00;101867.25;5054136;28;20476;-50